Time;durP1;ratioP1;P1;durP2;ratioP2;P2;SDS_P1;SDS_P2;PMS_P1;PMS_P2;Temp;Humidity;BMP_temperature;BMP_pressure;BME280_temperature;BME280_humidity;BME280_pressure;Samples;Min_cycle;Max_cycle;Signal;HPM_P1;HPM_P2
2022/05/03 00:01:43;;;;;;;6.40;4.15;;;9.50;76.70;;;;;;5054515;28;20712;-64
2022/05/03 00:04:19;;;;;;;5.50;4.30;;;9.40;76.70;;;;;;5055337;28;20194;-64
2022/05/03 00:07:04;;;;;;;3.53;3.10;;;9.40;77.60;;;;;;5054750;28;20232;-64
2022/05/03 00:09:43;;;;;;;4.20;3.58;;;9.40;78.30;;;;;;5054599;28;20277;-65
2022/05/03 00:12:14;;;;;;;4.45;2.65;;;9.40;79.00;;;;;;5054424;28;20614;-64
2022/05/03 00:14:45;;;;;;;3.20;2.40;;;9.30;80.00;;;;;;5054038;28;20190;-64
2022/05/03 00:17:18;;;;;;;4.15;3.20;;;9.30;79.70;;;;;;5054876;28;20220;-64
2022/05/03 00:19:45;;;;;;;6.90;3.80;;;9.20;79.00;;;;;;5054088;28;20300;-65
2022/05/03 00:22:13;;;;;;;4.88;3.35;;;9.10;79.10;;;;;;5054734;28;20222;-64
2022/05/03 00:24:41;;;;;;;4.10;3.38;;;9.10;79.50;;;;;;5053853;28;20241;-64
2022/05/03 00:27:08;;;;;;;4.47;3.65;;;9.00;80.20;;;;;;5054738;28;20276;-64
2022/05/03 00:29:35;;;;;;;4.38;3.05;;;9.00;80.10;;;;;;5054130;28;20252;-65
2022/05/03 00:32:05;;;;;;;5.78;4.05;;;9.00;80.20;;;;;;5054507;28;20226;-66
2022/05/03 00:34:33;;;;;;;3.58;2.95;;;9.00;80.40;;;;;;5054250;28;20296;-65
2022/05/03 00:37:00;;;;;;;3.85;2.95;;;9.10;80.60;;;;;;5034314;28;20309;-64
2022/05/03 00:39:27;;;;;;;4.78;3.20;;;9.00;80.60;;;;;;5034701;28;20241;-65
2022/05/03 00:42:02;;;;;;;4.68;4.15;;;8.90;80.80;;;;;;5052959;28;20273;-65
2022/05/03 00:44:56;;;;;;;4.10;2.90;;;8.90;81.50;;;;;;5054294;28;20285;-65
2022/05/03 00:47:32;;;;;;;4.53;2.72;;;8.90;81.30;;;;;;5034628;28;20772;-64
2022/05/03 00:50:05;;;;;;;4.70;3.30;;;8.90;80.30;;;;;;5036388;28;20289;-65
2022/05/03 00:52:41;;;;;;;5.07;4.57;;;8.80;80.20;;;;;;5054232;28;20651;-64
2022/05/03 00:55:37;;;;;;;5.47;3.53;;;8.70;81.30;;;;;;5053566;28;20175;-64
2022/05/03 00:58:35;;;;;;;5.20;3.63;;;8.70;81.40;;;;;;5045792;28;20304;-65
2022/05/03 01:01:17;;;;;;;5.50;4.32;;;8.60;81.30;;;;;;5053338;28;20298;-65
2022/05/03 01:03:56;;;;;;;5.50;3.67;;;8.60;80.50;;;;;;5053531;28;20183;-64
2022/05/03 01:06:34;;;;;;;5.15;3.60;;;8.60;80.20;;;;;;5054083;28;20281;-65
2022/05/03 01:09:06;;;;;;;4.10;3.28;;;8.50;79.30;;;;;;5053305;28;20218;-64
2022/05/03 01:11:47;;;;;;;4.55;3.40;;;8.50;80.30;;;;;;5053471;28;20244;-64
2022/05/03 01:14:32;;;;;;;4.57;3.10;;;8.40;81.60;;;;;;5053868;28;20230;-64
2022/05/03 01:17:04;;;;;;;4.15;3.35;;;8.40;83.10;;;;;;5053154;28;20246;-65
2022/05/03 01:19:48;;;;;;;4.00;3.13;;;8.40;83.80;;;;;;5053757;28;20197;-65
2022/05/03 01:22:38;;;;;;;3.42;2.10;;;8.50;84.00;;;;;;5053069;28;20232;-66
2022/05/03 01:25:16;;;;;;;4.95;3.20;;;8.50;84.00;;;;;;5053499;28;20190;-65
2022/05/03 01:27:59;;;;;;;4.30;2.97;;;8.50;83.30;;;;;;5051974;28;20190;-64
2022/05/03 01:30:31;;;;;;;3.60;2.80;;;8.50;81.60;;;;;;5053668;28;20202;-64
2022/05/03 01:33:06;;;;;;;4.03;2.97;;;8.40;81.20;;;;;;5052005;28;20190;-64
2022/05/03 01:35:38;;;;;;;3.80;2.90;;;8.30;81.70;;;;;;5053420;28;20719;-64
2022/05/03 01:38:14;;;;;;;3.85;2.80;;;8.30;81.30;;;;;;5052498;28;20300;-64
2022/05/03 01:41:00;;;;;;;6.38;3.15;;;8.20;80.30;;;;;;5053297;28;20625;-64
2022/05/03 01:43:42;;;;;;;7.97;3.97;;;8.10;81.70;;;;;;5052246;28;20190;-65
2022/05/03 01:46:18;;;;;;;5.20;3.08;;;8.10;81.70;;;;;;5050995;28;20771;-65
2022/05/03 01:51:50;;;;;;;5.47;3.80;;;8.00;80.00;;;;;;5053197;28;20193;-64
2022/05/03 01:54:52;;;;;;;5.18;3.05;;;8.00;80.90;;;;;;5049631;28;20236;-64
2022/05/03 01:57:27;;;;;;;5.90;3.28;;;8.10;81.20;;;;;;5052834;28;20237;-64
2022/05/03 02:00:03;;;;;;;4.45;3.47;;;8.00;80.20;;;;;;5052665;28;20184;-65
2022/05/03 02:02:48;;;;;;;5.50;3.40;;;8.00;79.80;;;;;;5053204;28;20197;-65
2022/05/03 02:05:25;;;;;;;6.07;3.47;;;8.00;79.80;;;;;;5052488;28;20537;-64
2022/05/03 02:07:56;;;;;;;5.05;3.35;;;8.00;80.00;;;;;;5053191;28;20228;-65
2022/05/03 02:10:44;;;;;;;5.47;2.95;;;8.00;81.20;;;;;;5052326;28;20212;-65
2022/05/03 02:14:43;;;;;;;3.78;2.55;;;8.00;81.90;;;;;;5052875;28;20190;-65
2022/05/03 02:16:29;;;;;;;3.63;2.90;;;7.90;83.90;;;;;;5032889;28;20183;-67
2022/05/03 02:19:08;;;;;;;4.18;3.10;;;7.80;83.90;;;;;;5032810;28;20233;-65
2022/05/03 02:21:50;;;;;;;4.18;3.70;;;7.80;83.80;;;;;;5032931;28;20210;-64
2022/05/03 02:24:27;;;;;;;6.07;4.55;;;7.80;82.20;;;;;;5033843;28;20637;-64
2022/05/03 02:27:02;;;;;;;6.35;4.25;;;7.60;82.40;;;;;;5052957;28;20194;-65
2022/05/03 02:29:37;;;;;;;4.25;3.08;;;7.50;83.30;;;;;;5051893;28;20232;-64
2022/05/03 02:32:05;;;;;;;8.27;3.58;;;7.50;84.80;;;;;;5052615;28;20324;-64
2022/05/03 02:34:38;;;;;;;8.13;4.35;;;7.50;86.20;;;;;;5051537;28;20187;-65
2022/05/03 02:37:13;;;;;;;4.85;3.40;;;7.50;86.30;;;;;;5052829;28;20186;-64
2022/05/03 02:39:50;;;;;;;5.50;3.70;;;7.50;86.00;;;;;;5051725;28;20193;-64
2022/05/03 02:42:19;;;;;;;4.30;3.00;;;7.50;85.80;;;;;;5052629;28;20240;-64
2022/05/03 02:44:48;;;;;;;4.63;4.18;;;7.50;85.10;;;;;;5051538;28;20544;-65
2022/05/03 02:47:28;;;;;;;5.20;3.80;;;7.50;84.70;;;;;;5052560;28;20218;-64
2022/05/03 02:50:09;;;;;;;4.35;3.38;;;7.50;84.60;;;;;;5052058;28;20186;-64
2022/05/03 02:52:57;;;;;;;4.28;2.97;;;7.50;84.30;;;;;;5052576;28;20190;-64
2022/05/03 02:55:34;;;;;;;4.45;3.20;;;7.50;82.80;;;;;;5051474;28;20265;-65
2022/05/03 02:58:06;;;;;;;5.05;3.05;;;7.50;81.80;;;;;;5050326;28;20240;-64
2022/05/03 03:04:02;;;;;;;4.65;3.38;;;7.30;80.70;;;;;;5055435;28;20185;-65
2022/05/03 03:06:33;;;;;;;5.95;3.08;;;7.20;81.40;;;;;;5037183;28;20510;-64
2022/05/03 03:09:02;;;;;;;5.15;3.30;;;7.20;81.80;;;;;;5055346;28;20214;-65
2022/05/03 03:11:35;;;;;;;4.50;2.50;;;7.20;81.70;;;;;;5056708;28;20186;-65
2022/05/03 03:14:09;;;;;;;4.20;2.90;;;7.10;81.60;;;;;;5055253;28;20584;-64
2022/05/03 03:16:42;;;;;;;3.72;2.70;;;7.10;81.30;;;;;;5056398;28;20190;-64
2022/05/03 03:19:20;;;;;;;4.57;3.05;;;7.10;81.40;;;;;;5055277;28;20221;-64
2022/05/03 03:21:51;;;;;;;5.38;3.95;;;7.10;83.00;;;;;;5056133;28;20285;-64
2022/05/03 03:24:20;;;;;;;5.30;3.78;;;7.10;84.60;;;;;;5055252;28;20260;-64
2022/05/03 03:26:50;;;;;;;4.60;3.60;;;7.00;85.00;;;;;;5056196;28;20194;-64
2022/05/03 03:29:20;;;;;;;5.15;3.78;;;7.10;85.20;;;;;;5055269;28;20273;-65
2022/05/03 03:31:49;;;;;;;4.32;3.33;;;7.10;85.20;;;;;;5056027;28;20246;-64
2022/05/03 03:34:17;;;;;;;5.03;2.88;;;7.10;85.30;;;;;;5055187;28;20270;-64
2022/05/03 03:36:45;;;;;;;7.20;4.40;;;7.10;86.20;;;;;;5055905;28;20596;-65
2022/05/03 03:39:14;;;;;;;5.38;3.33;;;7.10;87.30;;;;;;5054794;28;20222;-64
2022/05/03 03:41:41;;;;;;;4.25;3.28;;;7.10;87.30;;;;;;5055766;28;20273;-64
2022/05/03 03:44:08;;;;;;;4.47;3.45;;;7.10;87.40;;;;;;5054356;28;20280;-64
2022/05/03 03:46:35;;;;;;;5.22;3.65;;;7.10;87.40;;;;;;5055183;28;20218;-64
2022/05/03 03:49:02;;;;;;;7.38;6.00;;;7.00;87.10;;;;;;5054888;28;20281;-65
2022/05/03 03:51:29;;;;;;;8.65;6.93;;;7.00;87.10;;;;;;5055705;28;20284;-65
2022/05/03 03:53:57;;;;;;;8.25;6.28;;;7.10;86.70;;;;;;5054868;28;20636;-64
2022/05/03 03:56:25;;;;;;;5.70;4.13;;;7.10;86.90;;;;;;5055561;28;20625;-65
2022/05/03 03:58:53;;;;;;;6.55;3.60;;;7.20;86.60;;;;;;5054387;28;20301;-64
2022/05/03 04:01:20;;;;;;;4.20;3.03;;;7.20;86.10;;;;;;5055665;28;20280;-65
2022/05/03 04:03:47;;;;;;;4.80;3.03;;;7.20;85.50;;;;;;5055048;28;20273;-64
2022/05/03 04:06:14;;;;;;;5.43;4.35;;;7.20;85.00;;;;;;5055714;28;20194;-63
2022/05/03 04:08:41;;;;;;;5.63;5.00;;;7.20;85.20;;;;;;5054813;28;20190;-65
2022/05/03 04:11:17;;;;;;;5.00;4.28;;;7.20;83.90;;;;;;5055232;28;20191;-64
2022/05/03 04:13:46;;;;;;;5.97;3.95;;;7.20;82.40;;;;;;5055075;28;20276;-64
2022/05/03 04:16:13;;;;;;;3.67;3.30;;;7.20;81.80;;;;;;5055356;28;20194;-64
2022/05/03 04:18:45;;;;;;;5.95;3.72;;;7.20;82.40;;;;;;5054608;28;20214;-64
2022/05/03 04:21:14;;;;;;;4.57;3.25;;;7.20;83.10;;;;;;5055481;28;20226;-64
2022/05/03 04:23:41;;;;;;;4.88;3.47;;;7.20;83.40;;;;;;5054359;28;20197;-64
2022/05/03 04:26:09;;;;;;;4.03;3.30;;;7.30;83.90;;;;;;5054435;28;20206;-64
2022/05/03 04:28:36;;;;;;;5.70;4.35;;;7.30;82.50;;;;;;5055053;28;20277;-64
2022/05/03 04:31:04;;;;;;;3.85;3.30;;;7.20;80.20;;;;;;5054054;28;20214;-65
2022/05/03 04:33:31;;;;;;;6.18;3.80;;;7.10;80.60;;;;;;5055149;28;20282;-65
2022/05/03 04:35:58;;;;;;;7.13;4.00;;;7.00;81.30;;;;;;5054157;28;20182;-65
2022/05/03 04:38:25;;;;;;;4.00;3.08;;;6.90;81.90;;;;;;5054959;28;20304;-64
2022/05/03 04:40:59;;;;;;;4.82;3.00;;;6.90;82.70;;;;;;5054634;28;20214;-64
2022/05/03 04:43:26;;;;;;;5.00;3.35;;;6.80;82.90;;;;;;5055040;28;20225;-65
2022/05/03 04:45:53;;;;;;;4.30;3.70;;;6.90;83.10;;;;;;5053568;28;20226;-64
2022/05/03 04:48:22;;;;;;;6.68;4.78;;;6.90;83.70;;;;;;5051148;28;20183;-64
2022/05/03 04:50:48;;;;;;;9.80;8.02;;;6.90;84.10;;;;;;5051402;28;20269;-65
2022/05/03 04:53:17;;;;;;;12.20;7.75;;;6.90;84.80;;;;;;5052777;28;20198;-64
2022/05/03 04:55:44;;;;;;;7.65;6.10;;;6.90;85.80;;;;;;5052506;28;20190;-64
2022/05/03 04:58:11;;;;;;;6.57;5.50;;;7.00;86.60;;;;;;5052586;28;20310;-64
2022/05/03 05:00:38;;;;;;;10.23;7.15;;;7.10;87.30;;;;;;5051570;28;20195;-65
2022/05/03 05:03:05;;;;;;;7.65;5.75;;;7.20;87.50;;;;;;5052940;28;20233;-64
2022/05/03 05:05:34;;;;;;;6.65;5.53;;;7.20;87.30;;;;;;5051306;28;20285;-65
2022/05/03 05:08:04;;;;;;;9.55;5.45;;;7.20;88.20;;;;;;5052836;28;20222;-64
2022/05/03 05:10:32;;;;;;;5.90;4.32;;;7.20;88.90;;;;;;5051331;28;20746;-64
2022/05/03 05:13:00;;;;;;;8.48;6.15;;;7.30;89.20;;;;;;5052521;28;20199;-64
2022/05/03 05:15:27;;;;;;;6.50;4.47;;;7.40;89.10;;;;;;5051614;28;20521;-64
2022/05/03 05:17:55;;;;;;;5.53;3.83;;;7.50;89.00;;;;;;5052242;28;20205;-65
2022/05/03 05:20:22;;;;;;;6.28;5.60;;;7.60;88.80;;;;;;5047507;28;20281;-64
2022/05/03 05:22:50;;;;;;;7.00;4.93;;;7.70;89.30;;;;;;5051663;28;21126;-64
2022/05/03 05:25:17;;;;;;;7.85;5.90;;;7.80;89.50;;;;;;5051905;28;20281;-64
2022/05/03 05:27:44;;;;;;;8.55;6.18;;;7.90;90.00;;;;;;5052043;28;20202;-65
2022/05/03 05:30:12;;;;;;;7.57;4.68;;;8.00;90.10;;;;;;5051113;28;20229;-64
2022/05/03 05:32:39;;;;;;;9.13;4.80;;;8.20;90.20;;;;;;5052223;28;20237;-65
2022/05/03 05:35:07;;;;;;;6.60;4.25;;;8.30;89.30;;;;;;5051663;28;20190;-64
2022/05/03 05:37:34;;;;;;;6.57;4.82;;;8.40;89.70;;;;;;5051590;28;20293;-65
2022/05/03 05:40:02;;;;;;;6.32;4.60;;;8.60;89.80;;;;;;5050848;28;20227;-70
2022/05/03 05:42:29;;;;;;;5.80;4.53;;;8.70;88.60;;;;;;5052231;28;20228;-65
2022/05/03 05:44:56;;;;;;;4.35;3.40;;;8.80;88.40;;;;;;5051652;28;20652;-67
2022/05/03 05:47:23;;;;;;;4.68;3.75;;;8.90;88.40;;;;;;5049539;28;20704;-64
2022/05/03 05:49:50;;;;;;;10.93;4.13;;;9.00;87.90;;;;;;5050041;28;20178;-64
2022/05/03 05:55:04;;;;;;;7.07;4.68;;;9.20;88.30;;;;;;5051537;28;20320;-64
2022/05/03 05:57:31;;;;;;;6.63;3.65;;;9.30;88.00;;;;;;5051537;28;20276;-65
2022/05/03 05:59:57;;;;;;;5.75;4.13;;;9.50;88.30;;;;;;5048231;28;20222;-66
2022/05/03 06:02:24;;;;;;;5.90;4.10;;;9.60;89.50;;;;;;5047252;28;20289;-65
2022/05/03 06:04:51;;;;;;;4.65;3.60;;;9.80;90.20;;;;;;5051174;28;20205;-65
2022/05/03 06:07:18;;;;;;;5.57;3.75;;;10.00;89.70;;;;;;5050703;28;20187;-64
2022/05/03 06:09:45;;;;;;;5.68;3.60;;;10.20;89.70;;;;;;5051260;28;20645;-64
2022/05/03 06:12:14;;;;;;;4.75;3.63;;;10.40;88.70;;;;;;5046426;28;20183;-65
2022/05/03 06:14:40;;;;;;;3.90;3.08;;;10.50;86.80;;;;;;5050701;28;20299;-65
2022/05/03 06:17:07;;;;;;;5.72;2.53;;;10.60;84.10;;;;;;5051137;28;20191;-64
2022/05/03 06:19:34;;;;;;;4.38;2.75;;;10.70;82.60;;;;;;5050634;28;20222;-65
2022/05/03 06:22:01;;;;;;;4.93;3.70;;;10.80;82.10;;;;;;5050050;28;20190;-65
2022/05/03 06:24:28;;;;;;;3.67;2.80;;;10.90;82.50;;;;;;5051244;28;20316;-64
2022/05/03 06:26:55;;;;;;;3.33;2.63;;;11.10;82.00;;;;;;5050810;28;20222;-65
2022/05/03 06:29:24;;;;;;;5.05;2.70;;;11.30;82.20;;;;;;5051037;28;20191;-65
2022/05/03 06:31:51;;;;;;;5.43;2.97;;;11.50;81.80;;;;;;5050778;28;20190;-64
2022/05/03 06:34:18;;;;;;;5.35;4.25;;;11.70;80.90;;;;;;5050529;28;20277;-64
2022/05/03 06:36:45;;;;;;;3.75;2.95;;;11.80;80.30;;;;;;5042059;28;20367;-65
2022/05/03 06:39:13;;;;;;;4.18;2.97;;;12.00;78.30;;;;;;5046495;28;20214;-64
2022/05/03 06:41:40;;;;;;;3.92;2.80;;;12.10;78.40;;;;;;5050649;28;20221;-65
2022/05/03 06:44:06;;;;;;;3.30;2.63;;;12.30;75.60;;;;;;5050166;28;20301;-65
2022/05/03 06:46:35;;;;;;;4.00;2.95;;;12.40;75.90;;;;;;5050780;28;20579;-65
2022/05/03 06:49:02;;;;;;;3.42;2.40;;;12.50;76.30;;;;;;5050110;28;20181;-64
2022/05/03 06:51:29;;;;;;;2.90;2.28;;;12.70;74.10;;;;;;5048585;28;20277;-65
2022/05/03 06:53:56;;;;;;;4.30;3.00;;;12.70;73.10;;;;;;5050790;28;20198;-68
2022/05/03 06:56:23;;;;;;;4.60;2.85;;;12.80;74.10;;;;;;5049369;28;20776;-64
2022/05/03 06:58:50;;;;;;;4.40;2.67;;;12.90;74.80;;;;;;5050352;28;20684;-65
2022/05/03 07:01:17;;;;;;;5.18;2.95;;;13.10;74.50;;;;;;5047996;28;20481;-64
2022/05/03 07:03:46;;;;;;;3.00;2.47;;;13.20;74.20;;;;;;5050469;28;20213;-62
2022/05/03 07:06:14;;;;;;;3.70;3.10;;;13.40;74.90;;;;;;5048167;28;20491;-63
2022/05/03 07:08:41;;;;;;;3.13;2.30;;;13.70;76.20;;;;;;5050276;28;20437;-62
2022/05/03 07:11:08;;;;;;;3.17;2.30;;;13.90;75.40;;;;;;5048106;28;20495;-62
2022/05/03 07:13:35;;;;;;;3.60;2.37;;;14.10;74.50;;;;;;5049612;28;20456;-62
2022/05/03 07:16:02;;;;;;;3.57;2.87;;;14.30;73.50;;;;;;5049350;28;20923;-64
2022/05/03 07:23:59;;;;;;;4.03;3.00;;;14.90;69.20;;;;;;5049860;28;20424;-62
2022/05/03 07:26:26;;;;;;;3.30;3.00;;;15.10;70.20;;;;;;5048264;28;20451;-63
2022/05/03 07:28:52;;;;;;;3.47;2.80;;;15.20;68.90;;;;;;5049991;28;20530;-62
2022/05/03 07:31:20;;;;;;;3.30;2.90;;;15.40;70.10;;;;;;5050601;28;20464;-62
2022/05/03 07:33:48;;;;;;;2.97;1.97;;;15.50;69.50;;;;;;5049739;28;20512;-62
2022/05/03 07:36:19;;;;;;;3.70;2.70;;;15.70;68.60;;;;;;5049808;28;20840;-62
2022/05/03 07:38:46;;;;;;;7.23;3.20;;;16.00;69.00;;;;;;5049022;28;20473;-65
2022/05/03 07:41:13;;;;;;;3.13;2.43;;;16.10;67.10;;;;;;5047543;28;20469;-62
2022/05/03 07:43:41;;;;;;;4.53;3.80;;;16.20;64.70;;;;;;5049753;28;20436;-63
2022/05/03 07:46:09;;;;;;;4.03;3.63;;;16.30;64.50;;;;;;5052793;28;20460;-62
2022/05/03 07:48:36;;;;;;;4.60;3.80;;;16.50;65.80;;;;;;5054061;28;20436;-63
2022/05/03 07:51:03;;;;;;;6.37;3.27;;;16.60;65.20;;;;;;5053240;28;20523;-65
2022/05/03 07:53:31;;;;;;;5.47;3.50;;;16.80;64.70;;;;;;5052564;28;20484;-62
2022/05/03 07:55:58;;;;;;;3.60;2.80;;;17.00;65.50;;;;;;5054050;28;20441;-62
2022/05/03 07:58:25;;;;;;;3.80;3.07;;;17.20;65.90;;;;;;5052922;28;20510;-62
2022/05/03 08:00:57;;;;;;;5.43;3.10;;;17.40;65.30;;;;;;5053751;28;20959;-62
2022/05/03 08:03:24;;;;;;;4.80;3.33;;;17.60;63.30;;;;;;5052295;28;20444;-62
2022/05/03 08:05:52;;;;;;;5.20;3.27;;;17.70;61.10;;;;;;5053536;28;20953;-62
2022/05/03 08:08:19;;;;;;;4.63;3.60;;;17.80;60.80;;;;;;5052927;28;20445;-62
2022/05/03 08:10:48;;;;;;;4.63;4.07;;;17.90;60.10;;;;;;5052856;28;20481;-63
2022/05/03 08:13:15;;;;;;;5.20;3.87;;;18.10;59.30;;;;;;5053028;28;20524;-63
2022/05/03 08:15:42;;;;;;;5.17;4.17;;;18.20;59.20;;;;;;5053266;28;20476;-62
2022/05/03 08:18:09;;;;;;;5.23;4.27;;;18.40;57.50;;;;;;5053228;28;20451;-63
2022/05/03 08:20:36;;;;;;;6.80;3.80;;;18.40;56.90;;;;;;5052156;28;20571;-63
2022/05/03 08:23:03;;;;;;;4.90;3.57;;;18.60;56.30;;;;;;5053473;28;20445;-63
2022/05/03 08:25:32;;;;;;;4.23;3.50;;;18.60;55.60;;;;;;5052116;28;20846;-63
2022/05/03 08:28:00;;;;;;;5.20;3.97;;;18.70;54.30;;;;;;5053045;28;20524;-64
2022/05/03 08:30:27;;;;;;;3.30;2.80;;;18.80;53.20;;;;;;5048123;28;20532;-63
2022/05/03 08:32:54;;;;;;;4.10;3.00;;;18.90;53.10;;;;;;5053176;28;20803;-64
2022/05/03 08:35:24;;;;;;;6.53;2.83;;;19.00;51.00;;;;;;5052669;28;20907;-62
2022/05/03 08:43:21;;;;;;;6.70;5.20;;;19.50;53.80;;;;;;5053108;28;20547;-62
2022/05/03 08:45:51;;;;;;;6.90;6.20;;;19.70;53.00;;;;;;5052289;28;20464;-62
2022/05/03 08:48:20;;;;;;;7.80;6.47;;;19.90;52.20;;;;;;5052774;28;20460;-63
2022/05/03 08:50:47;;;;;;;6.43;5.50;;;20.00;50.10;;;;;;5051310;28;20527;-62
2022/05/03 08:53:16;;;;;;;6.30;4.23;;;20.10;49.10;;;;;;5052784;28;20451;-63
2022/05/03 08:55:44;;;;;;;5.63;4.47;;;20.20;51.50;;;;;;5051451;28;20476;-63
2022/05/03 08:58:16;;;;;;;5.83;4.53;;;20.40;51.70;;;;;;5052762;28;20529;-63
2022/05/03 09:00:45;;;;;;;6.10;4.80;;;20.60;52.00;;;;;;5051999;28;20530;-63
2022/05/03 09:03:14;;;;;;;7.37;5.13;;;20.70;50.10;;;;;;5051420;28;20441;-63
2022/05/03 09:05:41;;;;;;;5.70;5.10;;;20.90;49.70;;;;;;5051080;28;20503;-65
2022/05/03 09:08:11;;;;;;;6.53;5.37;;;21.00;47.40;;;;;;5050666;28;20437;-63
2022/05/03 09:10:39;;;;;;;6.70;4.30;;;21.10;48.80;;;;;;5052703;28;20440;-62
2022/05/03 09:13:22;;;;;;;7.10;5.50;;;21.30;45.50;;;;;;5051577;28;20532;-63
2022/05/03 09:15:52;;;;;;;6.60;5.50;;;21.40;45.50;;;;;;5049186;28;20937;-63
2022/05/03 09:18:24;;;;;;;7.50;6.10;;;21.40;46.90;;;;;;5050418;28;20465;-63
2022/05/03 09:23:48;;;;;;;5.83;5.30;;;21.50;44.90;;;;;;5049283;28;20432;-70
2022/05/03 09:26:17;;;;;;;7.47;4.90;;;21.60;44.60;;;;;;5048265;28;20530;-63
2022/05/03 09:28:46;;;;;;;5.77;5.10;;;21.50;43.30;;;;;;5046610;28;20532;-69
2022/05/03 09:31:14;;;;;;;5.80;4.90;;;21.60;44.70;;;;;;5049818;28;20441;-63
2022/05/03 09:33:41;;;;;;;10.57;5.30;;;21.70;44.90;;;;;;5051024;28;20439;-62
2022/05/03 09:36:10;;;;;;;4.73;3.20;;;21.80;44.20;;;;;;5050888;28;20432;-65
2022/05/03 09:38:46;;;;;;;4.80;2.93;;;22.00;40.50;;;;;;5051980;28;20464;-63
2022/05/03 09:41:15;;;;;;;4.30;3.10;;;22.00;40.00;;;;;;5049986;28;20472;-65
2022/05/03 09:44:04;;;;;;;3.97;3.23;;;22.10;40.50;;;;;;5052051;28;20443;-63
2022/05/03 09:46:50;;;;;;;3.80;3.00;;;22.20;41.40;;;;;;5050910;28;20468;-64
2022/05/03 09:49:19;;;;;;;3.97;3.57;;;22.30;39.40;;;;;;5051722;28;20448;-63
2022/05/03 09:51:46;;;;;;;4.10;3.60;;;22.40;40.80;;;;;;5050122;28;20441;-63
2022/05/03 09:54:14;;;;;;;4.50;3.57;;;22.40;41.50;;;;;;5051681;28;20437;-62
2022/05/03 09:56:44;;;;;;;6.13;4.20;;;22.60;42.10;;;;;;5049827;28;20437;-63
2022/05/03 09:59:14;;;;;;;6.53;3.90;;;22.80;41.40;;;;;;5050587;28;20441;-63
2022/05/03 10:01:42;;;;;;;5.03;4.00;;;22.90;38.80;;;;;;5050453;28;20470;-65
2022/05/03 10:04:16;;;;;;;5.10;3.90;;;23.00;38.30;;;;;;5051609;28;20437;-62
2022/05/03 10:06:51;;;;;;;5.13;4.27;;;23.00;39.50;;;;;;5050621;28;20473;-63
2022/05/03 10:09:24;;;;;;;5.17;4.40;;;23.10;39.50;;;;;;5052229;28;20433;-62
2022/05/03 10:11:55;;;;;;;5.70;4.77;;;23.20;39.40;;;;;;5051203;28;20982;-64
2022/05/03 10:14:22;;;;;;;4.23;3.83;;;23.30;39.70;;;;;;5051772;28;20441;-62
2022/05/03 10:22:37;;;;;;;4.67;3.00;;;23.60;40.30;;;;;;5050671;28;20855;-63
2022/05/03 10:25:06;;;;;;;5.00;3.80;;;23.70;39.20;;;;;;5051285;28;20521;-63
2022/05/03 10:28:09;;;;;;;4.20;3.77;;;23.80;40.50;;;;;;5046535;28;20779;-62
2022/05/03 10:30:38;;;;;;;5.40;4.40;;;23.80;39.30;;;;;;5048424;28;21019;-63
2022/05/03 10:33:38;;;;;;;4.47;4.07;;;23.90;37.60;;;;;;5050721;28;20931;-63
2022/05/03 10:36:42;;;;;;;5.13;3.80;;;24.10;35.70;;;;;;5048263;28;20524;-63
2022/05/03 10:39:23;;;;;;;4.70;3.43;;;24.00;36.20;;;;;;5051220;28;20471;-62
2022/05/03 10:42:02;;;;;;;4.80;2.97;;;24.00;36.20;;;;;;5050130;28;20823;-63
2022/05/03 10:44:47;;;;;;;3.43;2.90;;;24.00;37.20;;;;;;5050986;28;20437;-63
2022/05/03 10:47:19;;;;;;;5.53;3.50;;;24.00;38.30;;;;;;5049596;28;20511;-62
2022/05/03 10:50:23;;;;;;;4.50;3.47;;;24.10;38.20;;;;;;5050243;28;20453;-63
2022/05/03 10:53:24;;;;;;;4.83;2.83;;;24.10;35.90;;;;;;5050906;28;20959;-63
2022/05/03 10:56:24;;;;;;;4.40;3.20;;;24.30;35.20;;;;;;5047351;28;20421;-64
2022/05/03 10:59:21;;;;;;;6.20;3.10;;;24.40;38.20;;;;;;5048184;28;20468;-63
2022/05/03 11:02:09;;;;;;;3.37;2.97;;;24.50;37.40;;;;;;5048252;28;20927;-63
2022/05/03 11:04:56;;;;;;;4.70;3.50;;;24.50;37.30;;;;;;5051084;28;20797;-63
2022/05/03 11:07:26;;;;;;;3.67;2.90;;;24.60;37.00;;;;;;5046259;28;20932;-62
2022/05/03 11:09:52;;;;;;;3.70;3.07;;;24.70;35.70;;;;;;5051202;28;20468;-62
2022/05/03 11:12:19;;;;;;;3.70;3.00;;;24.80;34.30;;;;;;5050365;28;20814;-65
2022/05/03 11:14:49;;;;;;;3.20;2.80;;;24.80;37.20;;;;;;5049590;28;20438;-68
2022/05/03 11:17:17;;;;;;;3.90;3.23;;;24.90;35.90;;;;;;5050861;28;20928;-63
2022/05/03 11:19:56;;;;;;;4.20;3.60;;;24.80;34.00;;;;;;5052081;28;20433;-63
2022/05/03 11:22:26;;;;;;;3.70;3.17;;;24.80;34.30;;;;;;5054701;28;20437;-63
2022/05/03 11:24:55;;;;;;;3.90;2.93;;;24.90;33.80;;;;;;5054953;28;20496;-63
2022/05/03 11:27:23;;;;;;;4.03;2.90;;;25.00;33.00;;;;;;5054572;28;20445;-63
2022/05/03 11:29:55;;;;;;;5.70;3.50;;;25.00;35.40;;;;;;5054745;28;20530;-67
2022/05/03 11:32:29;;;;;;;7.43;3.00;;;25.00;37.20;;;;;;5054839;28;20480;-62
2022/05/03 11:35:11;;;;;;;5.37;3.43;;;25.10;36.90;;;;;;5050987;28;20581;-63
2022/05/03 11:37:47;;;;;;;3.90;3.20;;;25.10;37.40;;;;;;5053776;28;20993;-64
2022/05/03 11:40:15;;;;;;;3.37;3.07;;;25.10;36.00;;;;;;5050999;28;21094;-63
2022/05/03 11:42:44;;;;;;;3.80;2.90;;;25.20;35.40;;;;;;5054351;28;20434;-63
2022/05/03 11:45:13;;;;;;;6.13;3.10;;;25.40;34.90;;;;;;5054072;28;20472;-63
2022/05/03 11:47:42;;;;;;;5.13;3.13;;;25.50;34.70;;;;;;5054305;28;20959;-63
2022/05/03 11:50:12;;;;;;;7.23;2.90;;;25.70;34.40;;;;;;5054409;28;20974;-63
2022/05/03 11:58:11;;;;;;;3.60;2.80;;;25.70;33.00;;;;;;5052351;28;20431;-63
2022/05/03 12:00:47;;;;;;;4.47;3.37;;;25.90;33.10;;;;;;5053760;28;20903;-64
2022/05/03 12:03:14;;;;;;;3.20;2.50;;;26.20;32.20;;;;;;5050741;28;20854;-63
2022/05/03 12:05:41;;;;;;;3.73;2.70;;;26.40;32.10;;;;;;5054167;28;20778;-62
2022/05/03 12:08:20;;;;;;;2.83;2.30;;;26.70;32.70;;;;;;5053813;28;20454;-65
2022/05/03 12:10:49;;;;;;;4.00;2.83;;;26.90;32.40;;;;;;5051240;28;20463;-63
2022/05/03 12:13:17;;;;;;;3.23;2.30;;;27.00;30.70;;;;;;5053997;28;20524;-63
2022/05/03 12:15:47;;;;;;;3.43;2.50;;;27.10;31.60;;;;;;5052875;28;20550;-63
2022/05/03 12:18:17;;;;;;;4.10;2.00;;;27.30;30.10;;;;;;5052814;28;21041;-62
2022/05/03 12:20:48;;;;;;;4.00;2.57;;;27.50;30.00;;;;;;5050453;28;20482;-63
2022/05/03 12:23:19;;;;;;;3.00;2.60;;;27.70;29.10;;;;;;5050622;28;20444;-68
2022/05/03 12:25:50;;;;;;;3.33;2.30;;;27.80;29.80;;;;;;5051073;28;20486;-64
2022/05/03 12:28:17;;;;;;;5.53;2.83;;;28.00;30.00;;;;;;5049308;28;20495;-64
2022/05/03 12:30:45;;;;;;;3.97;2.53;;;28.10;28.90;;;;;;5052108;28;20455;-63
2022/05/03 12:33:14;;;;;;;3.67;2.33;;;28.00;28.70;;;;;;5052486;28;20852;-63
2022/05/03 12:35:43;;;;;;;3.13;2.50;;;28.00;28.70;;;;;;5050886;28;20520;-63
2022/05/03 12:38:12;;;;;;;5.30;3.23;;;27.80;28.40;;;;;;5052949;28;20527;-63
2022/05/03 12:40:59;;;;;;;4.20;2.30;;;27.60;28.80;;;;;;5048768;28;20572;-64
2022/05/03 12:43:27;;;;;;;3.83;2.53;;;27.40;29.00;;;;;;5051248;28;20470;-66
2022/05/03 12:45:59;;;;;;;3.27;2.50;;;27.40;29.60;;;;;;5052493;28;20468;-63
2022/05/03 12:48:27;;;;;;;4.23;2.37;;;27.40;28.10;;;;;;5052307;28;20512;-64
2022/05/03 12:50:56;;;;;;;4.47;2.53;;;27.40;27.00;;;;;;5047393;28;20438;-64
2022/05/03 12:53:27;;;;;;;3.40;1.97;;;27.10;26.60;;;;;;5053465;28;20447;-63
2022/05/03 12:55:54;;;;;;;3.90;2.60;;;27.00;27.60;;;;;;5051767;28;20928;-62
2022/05/03 12:58:22;;;;;;;3.30;2.40;;;26.80;27.50;;;;;;5052604;28;20445;-63
2022/05/03 13:00:50;;;;;;;5.73;2.17;;;26.70;28.50;;;;;;5052022;28;20536;-63
2022/05/03 13:03:18;;;;;;;2.57;2.03;;;26.80;29.10;;;;;;5052668;28;20524;-62
2022/05/03 13:05:45;;;;;;;4.60;2.90;;;26.90;30.10;;;;;;5052095;28;21025;-65
2022/05/03 13:08:12;;;;;;;4.10;2.10;;;27.10;29.70;;;;;;5048229;28;20494;-63
2022/05/03 13:10:40;;;;;;;3.80;2.53;;;27.30;29.60;;;;;;5052808;28;20445;-63
2022/05/03 13:13:07;;;;;;;2.70;2.10;;;27.30;30.10;;;;;;5049335;28;20540;-64
2022/05/03 13:15:35;;;;;;;3.93;2.63;;;27.30;28.60;;;;;;5048639;28;20532;-64
2022/05/03 13:18:03;;;;;;;3.90;2.10;;;27.30;28.10;;;;;;5051001;28;20864;-64
2022/05/03 13:20:30;;;;;;;3.87;2.40;;;27.20;28.50;;;;;;5050142;28;20450;-63
2022/05/03 13:22:59;;;;;;;3.17;2.20;;;27.00;28.40;;;;;;5051839;28;20441;-65
2022/05/03 13:25:26;;;;;;;3.70;1.97;;;26.90;28.20;;;;;;5049095;28;20522;-63
2022/05/03 13:27:54;;;;;;;5.40;2.57;;;26.80;27.90;;;;;;5052079;28;20440;-64
2022/05/03 13:30:21;;;;;;;4.63;2.80;;;26.70;28.20;;;;;;5051354;28;20451;-63
2022/05/03 13:32:49;;;;;;;3.07;2.33;;;26.60;28.50;;;;;;5051885;28;20456;-64
2022/05/03 13:40:28;;;;;;;4.17;2.37;;;26.40;28.60;;;;;;5049382;28;20441;-63
2022/05/03 13:40:48;;;;;;;4.27;2.87;;;26.10;28.60;;;;;;5050752;28;20472;-62
2022/05/03 13:43:15;;;;;;;4.07;2.87;;;26.00;28.00;;;;;;5050335;28;20444;-63
2022/05/03 13:45:42;;;;;;;3.80;2.10;;;25.80;28.40;;;;;;5051007;28;20986;-62
2022/05/03 13:48:11;;;;;;;3.47;2.90;;;25.70;29.30;;;;;;5051410;28;20539;-62
2022/05/03 13:50:40;;;;;;;3.83;2.20;;;25.60;28.90;;;;;;5050790;28;20451;-63